sensor_id;sensor_type;location;lat;lon;timestamp;P1;durP1;ratioP1;P2;durP2;ratioP2
5121;SDS011;2563;52.242;7.956;2023-05-07T00:01:50;27.97;;;13.57;;
5121;SDS011;2563;52.242;7.956;2023-05-07T00:04:16;21.57;;;12.90;;
5121;SDS011;2563;52.242;7.956;2023-05-07T00:06:42;25.10;;;13.17;;
5121;SDS011;2563;52.242;7.956;2023-05-07T00:09:07;21.97;;;13.43;;
5121;SDS011;2563;52.242;7.956;2023-05-07T00:11:33;26.03;;;12.67;;
5121;SDS011;2563;52.242;7.956;2023-05-07T00:13:58;23.23;;;12.77;;
5121;SDS011;2563;52.242;7.956;2023-05-07T00:16:24;25.67;;;12.97;;
5121;SDS011;2563;52.242;7.956;2023-05-07T00:18:49;25.33;;;12.93;;
5121;SDS011;2563;52.242;7.956;2023-05-07T00:21:15;27.80;;;14.33;;
5121;SDS011;2563;52.242;7.956;2023-05-07T00:23:41;24.17;;;13.87;;
5121;SDS011;2563;52.242;7.956;2023-05-07T00:26:06;21.97;;;12.47;;
5121;SDS011;2563;52.242;7.956;2023-05-07T00:28:31;24.50;;;13.20;;
5121;SDS011;2563;52.242;7.956;2023-05-07T00:30:57;27.53;;;14.90;;
5121;SDS011;2563;52.242;7.956;2023-05-07T00:33:22;23.27;;;12.23;;
5121;SDS011;2563;52.242;7.956;2023-05-07T00:35:48;26.37;;;13.00;;
5121;SDS011;2563;52.242;7.956;2023-05-07T00:38:13;26.00;;;12.87;;
5121;SDS011;2563;52.242;7.956;2023-05-07T00:40:39;21.20;;;12.50;;
5121;SDS011;2563;52.242;7.956;2023-05-07T00:43:04;38.37;;;15.27;;
5121;SDS011;2563;52.242;7.956;2023-05-07T00:45:30;23.03;;;13.40;;
5121;SDS011;2563;52.242;7.956;2023-05-07T00:47:55;28.30;;;13.37;;
5121;SDS011;2563;52.242;7.956;2023-05-07T00:50:24;25.07;;;13.77;;
5121;SDS011;2563;52.242;7.956;2023-05-07T00:52:50;24.17;;;14.00;;
5121;SDS011;2563;52.242;7.956;2023-05-07T00:55:16;27.10;;;14.30;;
5121;SDS011;2563;52.242;7.956;2023-05-07T00:57:42;27.60;;;13.90;;
5121;SDS011;2563;52.242;7.956;2023-05-07T01:00:08;28.57;;;14.30;;
5121;SDS011;2563;52.242;7.956;2023-05-07T01:02:35;22.63;;;12.70;;
5121;SDS011;2563;52.242;7.956;2023-05-07T01:05:01;25.53;;;13.30;;
5121;SDS011;2563;52.242;7.956;2023-05-07T01:07:28;21.63;;;12.63;;
5121;SDS011;2563;52.242;7.956;2023-05-07T01:09:55;24.50;;;13.43;;
5121;SDS011;2563;52.242;7.956;2023-05-07T01:12:21;25.37;;;13.80;;
5121;SDS011;2563;52.242;7.956;2023-05-07T01:14:47;29.63;;;14.23;;
5121;SDS011;2563;52.242;7.956;2023-05-07T01:17:14;25.67;;;14.30;;
5121;SDS011;2563;52.242;7.956;2023-05-07T01:19:40;26.50;;;13.90;;
5121;SDS011;2563;52.242;7.956;2023-05-07T01:22:09;24.00;;;14.37;;
5121;SDS011;2563;52.242;7.956;2023-05-07T01:24:36;25.67;;;13.93;;
5121;SDS011;2563;52.242;7.956;2023-05-07T01:27:02;25.10;;;13.83;;
5121;SDS011;2563;52.242;7.956;2023-05-07T01:29:28;25.70;;;13.93;;
5121;SDS011;2563;52.242;7.956;2023-05-07T01:31:54;25.77;;;13.50;;
5121;SDS011;2563;52.242;7.956;2023-05-07T01:34:23;35.57;;;14.53;;
5121;SDS011;2563;52.242;7.956;2023-05-07T01:36:52;28.30;;;13.90;;
5121;SDS011;2563;52.242;7.956;2023-05-07T01:39:18;28.50;;;14.63;;
5121;SDS011;2563;52.242;7.956;2023-05-07T01:41:44;27.90;;;15.23;;
5121;SDS011;2563;52.242;7.956;2023-05-07T01:44:10;27.47;;;15.10;;
5121;SDS011;2563;52.242;7.956;2023-05-07T01:46:38;28.97;;;15.37;;
5121;SDS011;2563;52.242;7.956;2023-05-07T01:49:03;33.20;;;16.03;;
5121;SDS011;2563;52.242;7.956;2023-05-07T01:51:29;34.17;;;15.70;;
5121;SDS011;2563;52.242;7.956;2023-05-07T01:53:55;31.43;;;15.97;;
5121;SDS011;2563;52.242;7.956;2023-05-07T01:56:21;31.50;;;14.97;;
5121;SDS011;2563;52.242;7.956;2023-05-07T01:58:46;32.97;;;15.93;;
5121;SDS011;2563;52.242;7.956;2023-05-07T02:01:12;28.70;;;15.10;;
5121;SDS011;2563;52.242;7.956;2023-05-07T02:03:38;31.73;;;16.10;;
5121;SDS011;2563;52.242;7.956;2023-05-07T02:06:04;30.97;;;15.97;;
5121;SDS011;2563;52.242;7.956;2023-05-07T02:08:29;33.00;;;16.63;;
5121;SDS011;2563;52.242;7.956;2023-05-07T02:10:55;31.23;;;16.33;;
5121;SDS011;2563;52.242;7.956;2023-05-07T02:13:20;32.47;;;16.10;;
5121;SDS011;2563;52.242;7.956;2023-05-07T02:15:47;34.80;;;16.80;;
5121;SDS011;2563;52.242;7.956;2023-05-07T02:18:15;33.43;;;16.70;;
5121;SDS011;2563;52.242;7.956;2023-05-07T02:20:41;34.80;;;15.87;;
5121;SDS011;2563;52.242;7.956;2023-05-07T02:23:06;37.10;;;16.67;;
5121;SDS011;2563;52.242;7.956;2023-05-07T02:25:32;33.30;;;17.53;;
5121;SDS011;2563;52.242;7.956;2023-05-07T02:27:57;31.27;;;16.20;;
5121;SDS011;2563;52.242;7.956;2023-05-07T02:30:23;30.97;;;16.50;;
5121;SDS011;2563;52.242;7.956;2023-05-07T02:32:48;35.50;;;18.03;;
5121;SDS011;2563;52.242;7.956;2023-05-07T02:35:14;41.83;;;17.43;;
5121;SDS011;2563;52.242;7.956;2023-05-07T02:37:39;39.63;;;18.27;;
5121;SDS011;2563;52.242;7.956;2023-05-07T02:40:05;38.13;;;18.00;;
5121;SDS011;2563;52.242;7.956;2023-05-07T02:42:30;33.27;;;17.40;;
5121;SDS011;2563;52.242;7.956;2023-05-07T02:44:56;36.47;;;17.77;;
5121;SDS011;2563;52.242;7.956;2023-05-07T02:47:21;38.77;;;17.17;;
5121;SDS011;2563;52.242;7.956;2023-05-07T02:49:47;38.07;;;19.03;;
5121;SDS011;2563;52.242;7.956;2023-05-07T02:52:12;38.10;;;18.30;;
5121;SDS011;2563;52.242;7.956;2023-05-07T02:54:38;37.20;;;17.60;;
5121;SDS011;2563;52.242;7.956;2023-05-07T02:57:03;34.63;;;16.90;;
5121;SDS011;2563;52.242;7.956;2023-05-07T02:59:29;36.33;;;17.70;;
5121;SDS011;2563;52.242;7.956;2023-05-07T03:01:54;40.50;;;18.93;;
5121;SDS011;2563;52.242;7.956;2023-05-07T03:04:19;34.43;;;17.87;;
5121;SDS011;2563;52.242;7.956;2023-05-07T03:06:45;37.40;;;17.20;;
5121;SDS011;2563;52.242;7.956;2023-05-07T03:09:10;36.67;;;18.50;;
5121;SDS011;2563;52.242;7.956;2023-05-07T03:11:36;33.70;;;17.67;;
5121;SDS011;2563;52.242;7.956;2023-05-07T03:14:01;36.20;;;17.93;;
5121;SDS011;2563;52.242;7.956;2023-05-07T03:16:27;37.33;;;18.67;;
5121;SDS011;2563;52.242;7.956;2023-05-07T03:18:52;32.47;;;17.30;;
5121;SDS011;2563;52.242;7.956;2023-05-07T03:21:18;40.90;;;18.40;;
5121;SDS011;2563;52.242;7.956;2023-05-07T03:23:43;36.67;;;16.70;;
5121;SDS011;2563;52.242;7.956;2023-05-07T03:26:09;38.60;;;19.17;;
5121;SDS011;2563;52.242;7.956;2023-05-07T03:28:34;39.37;;;18.47;;
5121;SDS011;2563;52.242;7.956;2023-05-07T03:31:00;39.00;;;19.00;;
5121;SDS011;2563;52.242;7.956;2023-05-07T03:33:26;36.53;;;18.00;;
5121;SDS011;2563;52.242;7.956;2023-05-07T03:35:52;42.53;;;20.13;;
5121;SDS011;2563;52.242;7.956;2023-05-07T03:38:18;36.90;;;18.47;;
5121;SDS011;2563;52.242;7.956;2023-05-07T03:40:43;35.60;;;17.50;;
5121;SDS011;2563;52.242;7.956;2023-05-07T03:43:08;33.70;;;17.47;;
5121;SDS011;2563;52.242;7.956;2023-05-07T03:45:34;36.90;;;19.40;;
5121;SDS011;2563;52.242;7.956;2023-05-07T03:48:00;39.70;;;19.20;;
5121;SDS011;2563;52.242;7.956;2023-05-07T03:50:25;36.10;;;18.20;;
5121;SDS011;2563;52.242;7.956;2023-05-07T03:52:50;40.47;;;18.67;;
5121;SDS011;2563;52.242;7.956;2023-05-07T03:55:16;38.10;;;19.03;;
5121;SDS011;2563;52.242;7.956;2023-05-07T03:57:41;34.40;;;17.07;;
5121;SDS011;2563;52.242;7.956;2023-05-07T04:00:07;39.50;;;18.47;;
5121;SDS011;2563;52.242;7.956;2023-05-07T04:02:33;37.67;;;19.37;;
5121;SDS011;2563;52.242;7.956;2023-05-07T04:04:58;40.57;;;19.43;;
5121;SDS011;2563;52.242;7.956;2023-05-07T04:07:24;38.77;;;19.33;;
5121;SDS011;2563;52.242;7.956;2023-05-07T04:09:49;43.60;;;20.50;;
5121;SDS011;2563;52.242;7.956;2023-05-07T04:12:14;39.30;;;18.73;;
5121;SDS011;2563;52.242;7.956;2023-05-07T04:14:40;41.00;;;19.50;;
5121;SDS011;2563;52.242;7.956;2023-05-07T04:17:05;45.63;;;19.80;;
5121;SDS011;2563;52.242;7.956;2023-05-07T04:19:33;39.73;;;19.47;;
5121;SDS011;2563;52.242;7.956;2023-05-07T04:21:58;44.10;;;19.90;;
5121;SDS011;2563;52.242;7.956;2023-05-07T04:24:24;41.73;;;18.70;;
5121;SDS011;2563;52.242;7.956;2023-05-07T04:26:49;40.57;;;19.00;;
5121;SDS011;2563;52.242;7.956;2023-05-07T04:29:16;41.20;;;19.50;;
5121;SDS011;2563;52.242;7.956;2023-05-07T04:31:41;39.70;;;20.07;;
5121;SDS011;2563;52.242;7.956;2023-05-07T04:34:09;40.33;;;19.83;;
5121;SDS011;2563;52.242;7.956;2023-05-07T04:36:36;36.33;;;17.80;;
5121;SDS011;2563;52.242;7.956;2023-05-07T04:39:02;35.10;;;17.60;;
5121;SDS011;2563;52.242;7.956;2023-05-07T04:41:28;42.70;;;18.80;;
5121;SDS011;2563;52.242;7.956;2023-05-07T04:43:53;40.80;;;19.80;;
5121;SDS011;2563;52.242;7.956;2023-05-07T04:46:18;32.47;;;16.87;;
5121;SDS011;2563;52.242;7.956;2023-05-07T04:48:44;35.03;;;17.90;;
5121;SDS011;2563;52.242;7.956;2023-05-07T04:51:09;36.70;;;17.97;;
5121;SDS011;2563;52.242;7.956;2023-05-07T04:53:34;39.20;;;18.67;;
5121;SDS011;2563;52.242;7.956;2023-05-07T04:56:00;37.10;;;17.23;;
5121;SDS011;2563;52.242;7.956;2023-05-07T04:58:25;38.47;;;18.53;;
5121;SDS011;2563;52.242;7.956;2023-05-07T05:00:51;38.83;;;17.23;;
5121;SDS011;2563;52.242;7.956;2023-05-07T05:03:16;38.00;;;18.93;;
5121;SDS011;2563;52.242;7.956;2023-05-07T05:05:42;33.03;;;17.00;;
5121;SDS011;2563;52.242;7.956;2023-05-07T05:08:07;32.67;;;16.77;;
5121;SDS011;2563;52.242;7.956;2023-05-07T05:10:33;36.80;;;17.60;;
5121;SDS011;2563;52.242;7.956;2023-05-07T05:12:58;32.83;;;15.97;;
5121;SDS011;2563;52.242;7.956;2023-05-07T05:15:27;37.17;;;16.67;;
5121;SDS011;2563;52.242;7.956;2023-05-07T05:17:52;31.80;;;16.70;;
5121;SDS011;2563;52.242;7.956;2023-05-07T05:20:18;38.00;;;18.37;;
5121;SDS011;2563;52.242;7.956;2023-05-07T05:22:46;35.27;;;17.80;;
5121;SDS011;2563;52.242;7.956;2023-05-07T05:25:14;34.10;;;16.10;;
5121;SDS011;2563;52.242;7.956;2023-05-07T05:27:46;38.20;;;18.10;;
5121;SDS011;2563;52.242;7.956;2023-05-07T05:30:14;31.23;;;16.10;;
5121;SDS011;2563;52.242;7.956;2023-05-07T05:32:39;31.87;;;16.47;;
5121;SDS011;2563;52.242;7.956;2023-05-07T05:35:08;31.63;;;16.20;;
5121;SDS011;2563;52.242;7.956;2023-05-07T05:37:33;36.07;;;17.67;;
5121;SDS011;2563;52.242;7.956;2023-05-07T05:39:59;34.27;;;17.13;;
5121;SDS011;2563;52.242;7.956;2023-05-07T05:42:24;34.90;;;17.30;;
5121;SDS011;2563;52.242;7.956;2023-05-07T05:44:55;42.63;;;16.50;;
5121;SDS011;2563;52.242;7.956;2023-05-07T05:47:21;32.40;;;16.67;;
5121;SDS011;2563;52.242;7.956;2023-05-07T05:49:53;36.67;;;15.50;;
5121;SDS011;2563;52.242;7.956;2023-05-07T05:52:18;29.33;;;15.30;;
5121;SDS011;2563;52.242;7.956;2023-05-07T05:54:44;44.70;;;17.37;;
5121;SDS011;2563;52.242;7.956;2023-05-07T05:57:09;31.87;;;15.83;;
5121;SDS011;2563;52.242;7.956;2023-05-07T05:59:35;28.37;;;15.30;;
5121;SDS011;2563;52.242;7.956;2023-05-07T06:02:00;31.70;;;15.77;;
5121;SDS011;2563;52.242;7.956;2023-05-07T06:04:26;28.83;;;14.90;;
5121;SDS011;2563;52.242;7.956;2023-05-07T06:06:51;34.27;;;16.50;;
5121;SDS011;2563;52.242;7.956;2023-05-07T06:09:16;32.97;;;14.73;;
5121;SDS011;2563;52.242;7.956;2023-05-07T06:11:42;31.03;;;16.50;;
5121;SDS011;2563;52.242;7.956;2023-05-07T06:14:07;32.23;;;16.20;;
5121;SDS011;2563;52.242;7.956;2023-05-07T06:16:32;28.80;;;15.67;;
5121;SDS011;2563;52.242;7.956;2023-05-07T06:18:58;33.03;;;16.80;;
5121;SDS011;2563;52.242;7.956;2023-05-07T06:21:23;31.40;;;16.23;;
5121;SDS011;2563;52.242;7.956;2023-05-07T06:23:48;33.07;;;16.67;;
5121;SDS011;2563;52.242;7.956;2023-05-07T06:26:14;32.10;;;17.43;;
5121;SDS011;2563;52.242;7.956;2023-05-07T06:28:39;29.60;;;15.60;;
5121;SDS011;2563;52.242;7.956;2023-05-07T06:31:16;28.77;;;15.37;;
5121;SDS011;2563;52.242;7.956;2023-05-07T06:33:45;30.67;;;15.03;;
5121;SDS011;2563;52.242;7.956;2023-05-07T06:36:11;30.00;;;15.70;;
5121;SDS011;2563;52.242;7.956;2023-05-07T06:38:36;32.93;;;15.80;;
5121;SDS011;2563;52.242;7.956;2023-05-07T06:41:01;30.10;;;14.47;;
5121;SDS011;2563;52.242;7.956;2023-05-07T06:43:27;32.23;;;15.80;;
5121;SDS011;2563;52.242;7.956;2023-05-07T06:45:52;29.50;;;15.70;;
5121;SDS011;2563;52.242;7.956;2023-05-07T06:48:18;30.83;;;14.57;;
5121;SDS011;2563;52.242;7.956;2023-05-07T06:50:43;30.50;;;15.33;;
5121;SDS011;2563;52.242;7.956;2023-05-07T06:53:08;35.07;;;16.13;;
5121;SDS011;2563;52.242;7.956;2023-05-07T06:55:33;33.87;;;16.17;;
5121;SDS011;2563;52.242;7.956;2023-05-07T06:57:59;29.47;;;15.47;;
5121;SDS011;2563;52.242;7.956;2023-05-07T07:00:26;27.57;;;14.40;;
5121;SDS011;2563;52.242;7.956;2023-05-07T07:02:52;30.37;;;14.70;;
5121;SDS011;2563;52.242;7.956;2023-05-07T07:05:18;29.63;;;15.53;;
5121;SDS011;2563;52.242;7.956;2023-05-07T07:07:44;27.70;;;14.90;;
5121;SDS011;2563;52.242;7.956;2023-05-07T07:10:09;31.03;;;14.70;;
5121;SDS011;2563;52.242;7.956;2023-05-07T07:12:34;30.40;;;15.07;;
5121;SDS011;2563;52.242;7.956;2023-05-07T07:15:00;29.97;;;15.47;;
5121;SDS011;2563;52.242;7.956;2023-05-07T07:17:25;27.83;;;15.00;;
5121;SDS011;2563;52.242;7.956;2023-05-07T07:19:50;28.00;;;14.43;;
5121;SDS011;2563;52.242;7.956;2023-05-07T07:22:16;35.00;;;14.97;;
5121;SDS011;2563;52.242;7.956;2023-05-07T07:24:41;32.90;;;17.10;;
5121;SDS011;2563;52.242;7.956;2023-05-07T07:27:07;26.60;;;15.00;;
5121;SDS011;2563;52.242;7.956;2023-05-07T07:29:32;26.50;;;14.50;;
5121;SDS011;2563;52.242;7.956;2023-05-07T07:31:57;28.83;;;14.60;;
5121;SDS011;2563;52.242;7.956;2023-05-07T07:34:23;28.83;;;15.20;;
5121;SDS011;2563;52.242;7.956;2023-05-07T07:36:48;27.40;;;13.63;;
5121;SDS011;2563;52.242;7.956;2023-05-07T07:39:13;29.70;;;14.43;;
5121;SDS011;2563;52.242;7.956;2023-05-07T07:41:39;29.20;;;14.33;;
5121;SDS011;2563;52.242;7.956;2023-05-07T07:44:04;28.90;;;15.00;;
5121;SDS011;2563;52.242;7.956;2023-05-07T07:46:32;27.70;;;14.10;;
5121;SDS011;2563;52.242;7.956;2023-05-07T07:48:58;26.87;;;13.77;;
5121;SDS011;2563;52.242;7.956;2023-05-07T07:51:24;28.93;;;14.20;;
5121;SDS011;2563;52.242;7.956;2023-05-07T07:53:50;26.23;;;13.57;;
5121;SDS011;2563;52.242;7.956;2023-05-07T07:56:15;24.57;;;12.47;;
5121;SDS011;2563;52.242;7.956;2023-05-07T07:58:40;29.53;;;14.23;;
5121;SDS011;2563;52.242;7.956;2023-05-07T08:01:06;25.97;;;14.10;;
5121;SDS011;2563;52.242;7.956;2023-05-07T08:03:32;25.53;;;14.00;;
5121;SDS011;2563;52.242;7.956;2023-05-07T08:05:57;28.23;;;14.23;;
5121;SDS011;2563;52.242;7.956;2023-05-07T08:08:23;25.70;;;12.93;;
5121;SDS011;2563;52.242;7.956;2023-05-07T08:10:48;29.40;;;13.90;;
5121;SDS011;2563;52.242;7.956;2023-05-07T08:13:15;23.50;;;12.77;;
5121;SDS011;2563;52.242;7.956;2023-05-07T08:15:41;25.53;;;13.87;;
5121;SDS011;2563;52.242;7.956;2023-05-07T08:18:06;26.10;;;14.80;;
5121;SDS011;2563;52.242;7.956;2023-05-07T08:20:31;22.37;;;12.80;;
5121;SDS011;2563;52.242;7.956;2023-05-07T08:22:57;24.50;;;14.30;;
5121;SDS011;2563;52.242;7.956;2023-05-07T08:25:22;27.63;;;14.57;;
5121;SDS011;2563;52.242;7.956;2023-05-07T08:27:48;26.70;;;13.87;;
5121;SDS011;2563;52.242;7.956;2023-05-07T08:30:13;25.33;;;13.10;;
5121;SDS011;2563;52.242;7.956;2023-05-07T08:32:39;25.47;;;13.00;;
5121;SDS011;2563;52.242;7.956;2023-05-07T08:35:04;22.97;;;13.07;;
5121;SDS011;2563;52.242;7.956;2023-05-07T08:37:30;22.57;;;12.20;;
5121;SDS011;2563;52.242;7.956;2023-05-07T08:39:55;26.93;;;11.90;;
5121;SDS011;2563;52.242;7.956;2023-05-07T08:42:22;23.47;;;13.63;;
5121;SDS011;2563;52.242;7.956;2023-05-07T08:44:50;21.67;;;11.77;;
5121;SDS011;2563;52.242;7.956;2023-05-07T08:47:18;24.13;;;13.43;;
5121;SDS011;2563;52.242;7.956;2023-05-07T08:49:44;22.67;;;12.40;;
5121;SDS011;2563;52.242;7.956;2023-05-07T08:52:11;21.73;;;11.87;;
5121;SDS011;2563;52.242;7.956;2023-05-07T08:54:37;22.87;;;13.27;;
5121;SDS011;2563;52.242;7.956;2023-05-07T08:57:03;21.77;;;12.77;;
5121;SDS011;2563;52.242;7.956;2023-05-07T08:59:29;23.63;;;12.30;;
5121;SDS011;2563;52.242;7.956;2023-05-07T09:01:55;21.67;;;12.10;;
5121;SDS011;2563;52.242;7.956;2023-05-07T09:04:20;20.77;;;11.63;;
5121;SDS011;2563;52.242;7.956;2023-05-07T09:06:45;23.50;;;12.70;;
5121;SDS011;2563;52.242;7.956;2023-05-07T09:09:14;21.60;;;11.77;;
5121;SDS011;2563;52.242;7.956;2023-05-07T09:11:42;20.97;;;11.90;;
5121;SDS011;2563;52.242;7.956;2023-05-07T09:14:07;23.80;;;12.87;;
5121;SDS011;2563;52.242;7.956;2023-05-07T09:16:33;20.93;;;11.90;;
5121;SDS011;2563;52.242;7.956;2023-05-07T09:18:58;23.10;;;12.20;;
5121;SDS011;2563;52.242;7.956;2023-05-07T09:21:27;20.53;;;11.80;;
5121;SDS011;2563;52.242;7.956;2023-05-07T09:23:53;23.03;;;12.90;;
5121;SDS011;2563;52.242;7.956;2023-05-07T09:26:21;18.20;;;11.40;;
5121;SDS011;2563;52.242;7.956;2023-05-07T09:28:47;19.83;;;12.03;;
5121;SDS011;2563;52.242;7.956;2023-05-07T09:31:13;21.00;;;12.40;;
5121;SDS011;2563;52.242;7.956;2023-05-07T09:33:39;16.67;;;10.47;;
5121;SDS011;2563;52.242;7.956;2023-05-07T09:36:05;19.83;;;11.40;;
5121;SDS011;2563;52.242;7.956;2023-05-07T09:38:32;18.70;;;11.53;;
5121;SDS011;2563;52.242;7.956;2023-05-07T09:41:06;18.10;;;11.10;;
5121;SDS011;2563;52.242;7.956;2023-05-07T09:43:34;18.40;;;11.20;;
5121;SDS011;2563;52.242;7.956;2023-05-07T09:46:02;18.47;;;10.63;;
5121;SDS011;2563;52.242;7.956;2023-05-07T09:48:31;21.07;;;11.63;;
5121;SDS011;2563;52.242;7.956;2023-05-07T09:51:01;19.53;;;11.07;;
5121;SDS011;2563;52.242;7.956;2023-05-07T09:53:29;21.20;;;10.87;;
5121;SDS011;2563;52.242;7.956;2023-05-07T09:55:56;18.80;;;10.50;;
5121;SDS011;2563;52.242;7.956;2023-05-07T09:58:22;14.40;;;9.73;;
5121;SDS011;2563;52.242;7.956;2023-05-07T10:00:49;18.10;;;10.63;;
5121;SDS011;2563;52.242;7.956;2023-05-07T10:03:15;19.43;;;10.77;;
5121;SDS011;2563;52.242;7.956;2023-05-07T10:05:42;16.97;;;10.33;;
5121;SDS011;2563;52.242;7.956;2023-05-07T10:08:09;17.17;;;10.97;;
5121;SDS011;2563;52.242;7.956;2023-05-07T10:10:35;15.73;;;10.13;;
5121;SDS011;2563;52.242;7.956;2023-05-07T10:13:01;15.70;;;9.83;;
5121;SDS011;2563;52.242;7.956;2023-05-07T10:15:30;16.53;;;9.20;;
5121;SDS011;2563;52.242;7.956;2023-05-07T10:17:56;25.33;;;8.90;;
5121;SDS011;2563;52.242;7.956;2023-05-07T10:20:22;17.33;;;10.73;;
5121;SDS011;2563;52.242;7.956;2023-05-07T10:22:48;17.80;;;10.57;;
5121;SDS011;2563;52.242;7.956;2023-05-07T10:25:21;15.30;;;9.80;;
5121;SDS011;2563;52.242;7.956;2023-05-07T10:27:50;15.10;;;9.90;;
5121;SDS011;2563;52.242;7.956;2023-05-07T10:30:38;13.43;;;8.60;;
5121;SDS011;2563;52.242;7.956;2023-05-07T10:33:05;16.07;;;9.40;;
5121;SDS011;2563;52.242;7.956;2023-05-07T10:35:41;12.20;;;7.87;;
5121;SDS011;2563;52.242;7.956;2023-05-07T10:38:07;11.40;;;8.40;;
5121;SDS011;2563;52.242;7.956;2023-05-07T10:40:33;11.20;;;7.30;;
5121;SDS011;2563;52.242;7.956;2023-05-07T10:43:02;11.70;;;8.47;;
5121;SDS011;2563;52.242;7.956;2023-05-07T10:45:31;11.93;;;7.90;;
5121;SDS011;2563;52.242;7.956;2023-05-07T10:50:37;11.27;;;7.90;;
5121;SDS011;2563;52.242;7.956;2023-05-07T10:55:44;14.90;;;9.47;;
5121;SDS011;2563;52.242;7.956;2023-05-07T11:01:06;11.60;;;7.77;;
5121;SDS011;2563;52.242;7.956;2023-05-07T11:03:31;12.47;;;8.17;;
5121;SDS011;2563;52.242;7.956;2023-05-07T11:06:13;10.77;;;7.37;;
5121;SDS011;2563;52.242;7.956;2023-05-07T11:11:18;14.37;;;8.23;;
5121;SDS011;2563;52.242;7.956;2023-05-07T11:14:03;11.07;;;7.30;;
5121;SDS011;2563;52.242;7.956;2023-05-07T11:16:28;10.20;;;7.47;;
5121;SDS011;2563;52.242;7.956;2023-05-07T11:18:55;11.40;;;7.80;;
5121;SDS011;2563;52.242;7.956;2023-05-07T11:21:40;16.13;;;7.43;;
5121;SDS011;2563;52.242;7.956;2023-05-07T11:24:07;9.80;;;6.70;;
5121;SDS011;2563;52.242;7.956;2023-05-07T11:26:44;9.93;;;7.17;;
5121;SDS011;2563;52.242;7.956;2023-05-07T11:29:18;11.50;;;7.13;;
5121;SDS011;2563;52.242;7.956;2023-05-07T11:31:48;11.90;;;7.60;;
5121;SDS011;2563;52.242;7.956;2023-05-07T11:34:21;12.27;;;7.20;;
5121;SDS011;2563;52.242;7.956;2023-05-07T11:36:47;10.80;;;6.47;;
5121;SDS011;2563;52.242;7.956;2023-05-07T11:42:24;10.00;;;6.90;;
5121;SDS011;2563;52.242;7.956;2023-05-07T11:44:51;10.00;;;6.53;;
5121;SDS011;2563;52.242;7.956;2023-05-07T11:47:17;12.80;;;7.00;;
5121;SDS011;2563;52.242;7.956;2023-05-07T11:49:45;9.83;;;6.60;;
5121;SDS011;2563;52.242;7.956;2023-05-07T11:52:12;13.17;;;7.87;;
5121;SDS011;2563;52.242;7.956;2023-05-07T11:54:38;9.30;;;6.57;;
5121;SDS011;2563;52.242;7.956;2023-05-07T11:57:03;9.00;;;6.80;;
5121;SDS011;2563;52.242;7.956;2023-05-07T11:59:29;10.00;;;6.63;;
5121;SDS011;2563;52.242;7.956;2023-05-07T12:01:57;9.70;;;6.30;;
5121;SDS011;2563;52.242;7.956;2023-05-07T12:04:24;13.90;;;6.50;;
5121;SDS011;2563;52.242;7.956;2023-05-07T12:06:53;10.53;;;6.80;;
5121;SDS011;2563;52.242;7.956;2023-05-07T12:09:20;10.80;;;7.40;;
5121;SDS011;2563;52.242;7.956;2023-05-07T12:11:46;13.93;;;6.70;;
5121;SDS011;2563;52.242;7.956;2023-05-07T12:14:12;10.00;;;7.60;;
5121;SDS011;2563;52.242;7.956;2023-05-07T12:16:38;11.67;;;7.27;;
5121;SDS011;2563;52.242;7.956;2023-05-07T12:19:05;12.07;;;8.10;;
5121;SDS011;2563;52.242;7.956;2023-05-07T12:21:33;10.27;;;7.17;;
5121;SDS011;2563;52.242;7.956;2023-05-07T12:23:58;11.43;;;7.13;;
5121;SDS011;2563;52.242;7.956;2023-05-07T12:26:24;10.20;;;7.33;;
5121;SDS011;2563;52.242;7.956;2023-05-07T12:28:49;11.03;;;7.77;;
5121;SDS011;2563;52.242;7.956;2023-05-07T12:31:15;11.33;;;7.77;;
5121;SDS011;2563;52.242;7.956;2023-05-07T12:33:41;10.87;;;7.73;;
5121;SDS011;2563;52.242;7.956;2023-05-07T12:36:07;12.67;;;7.83;;
5121;SDS011;2563;52.242;7.956;2023-05-07T12:38:39;11.03;;;7.77;;
5121;SDS011;2563;52.242;7.956;2023-05-07T12:41:08;11.83;;;7.63;;
5121;SDS011;2563;52.242;7.956;2023-05-07T12:43:35;10.93;;;7.80;;
5121;SDS011;2563;52.242;7.956;2023-05-07T12:46:03;12.70;;;8.10;;
5121;SDS011;2563;52.242;7.956;2023-05-07T12:48:30;12.10;;;7.77;;
5121;SDS011;2563;52.242;7.956;2023-05-07T12:50:57;11.40;;;7.87;;
5121;SDS011;2563;52.242;7.956;2023-05-07T12:53:25;10.90;;;6.70;;
5121;SDS011;2563;52.242;7.956;2023-05-07T12:55:52;9.80;;;6.90;;
5121;SDS011;2563;52.242;7.956;2023-05-07T13:00:47;8.83;;;5.93;;
5121;SDS011;2563;52.242;7.956;2023-05-07T13:03:21;16.13;;;8.50;;
5121;SDS011;2563;52.242;7.956;2023-05-07T13:05:51;10.77;;;7.43;;
5121;SDS011;2563;52.242;7.956;2023-05-07T13:08:50;9.83;;;6.90;;
5121;SDS011;2563;52.242;7.956;2023-05-07T13:11:09;9.37;;;6.70;;
5121;SDS011;2563;52.242;7.956;2023-05-07T13:13:36;8.87;;;6.60;;
5121;SDS011;2563;52.242;7.956;2023-05-07T13:16:04;12.07;;;7.40;;
5121;SDS011;2563;52.242;7.956;2023-05-07T13:18:30;9.10;;;6.90;;
5121;SDS011;2563;52.242;7.956;2023-05-07T13:20:57;14.33;;;6.90;;
5121;SDS011;2563;52.242;7.956;2023-05-07T13:23:23;8.73;;;6.73;;
5121;SDS011;2563;52.242;7.956;2023-05-07T13:25:48;8.80;;;6.67;;
5121;SDS011;2563;52.242;7.956;2023-05-07T13:28:16;9.13;;;6.77;;
5121;SDS011;2563;52.242;7.956;2023-05-07T13:30:53;10.33;;;7.00;;
5121;SDS011;2563;52.242;7.956;2023-05-07T13:33:23;12.00;;;6.40;;
5121;SDS011;2563;52.242;7.956;2023-05-07T13:35:49;8.50;;;5.83;;
5121;SDS011;2563;52.242;7.956;2023-05-07T13:38:14;9.83;;;6.50;;
5121;SDS011;2563;52.242;7.956;2023-05-07T13:40:40;9.03;;;6.10;;
5121;SDS011;2563;52.242;7.956;2023-05-07T13:43:06;8.67;;;5.23;;
5121;SDS011;2563;52.242;7.956;2023-05-07T13:45:31;8.70;;;5.50;;
5121;SDS011;2563;52.242;7.956;2023-05-07T13:47:57;8.00;;;5.80;;
5121;SDS011;2563;52.242;7.956;2023-05-07T13:50:23;15.00;;;5.77;;
5121;SDS011;2563;52.242;7.956;2023-05-07T13:52:48;9.93;;;6.23;;
5121;SDS011;2563;52.242;7.956;2023-05-07T13:55:20;8.87;;;5.13;;
5121;SDS011;2563;52.242;7.956;2023-05-07T13:57:46;8.90;;;5.70;;
5121;SDS011;2563;52.242;7.956;2023-05-07T14:00:12;7.70;;;5.20;;
5121;SDS011;2563;52.242;7.956;2023-05-07T14:02:39;9.97;;;5.60;;
5121;SDS011;2563;52.242;7.956;2023-05-07T14:05:05;9.97;;;5.70;;
5121;SDS011;2563;52.242;7.956;2023-05-07T14:07:30;8.33;;;6.00;;
5121;SDS011;2563;52.242;7.956;2023-05-07T14:09:58;9.53;;;5.20;;
5121;SDS011;2563;52.242;7.956;2023-05-07T14:12:24;8.67;;;6.10;;
5121;SDS011;2563;52.242;7.956;2023-05-07T14:14:49;7.97;;;4.77;;
5121;SDS011;2563;52.242;7.956;2023-05-07T14:17:16;9.23;;;5.03;;
5121;SDS011;2563;52.242;7.956;2023-05-07T14:19:43;10.30;;;6.30;;
5121;SDS011;2563;52.242;7.956;2023-05-07T14:22:08;7.80;;;5.53;;
5121;SDS011;2563;52.242;7.956;2023-05-07T14:24:34;8.70;;;5.57;;
5121;SDS011;2563;52.242;7.956;2023-05-07T14:27:00;8.50;;;6.00;;
5121;SDS011;2563;52.242;7.956;2023-05-07T14:29:25;8.03;;;5.53;;
5121;SDS011;2563;52.242;7.956;2023-05-07T14:31:53;10.23;;;5.47;;
5121;SDS011;2563;52.242;7.956;2023-05-07T14:34:21;7.33;;;5.37;;
5121;SDS011;2563;52.242;7.956;2023-05-07T14:36:47;9.17;;;5.67;;
5121;SDS011;2563;52.242;7.956;2023-05-07T14:39:16;7.60;;;6.00;;
5121;SDS011;2563;52.242;7.956;2023-05-07T14:50:24;8.00;;;5.47;;
5121;SDS011;2563;52.242;7.956;2023-05-07T14:52:49;8.03;;;5.77;;
5121;SDS011;2563;52.242;7.956;2023-05-07T14:55:15;8.50;;;5.63;;
5121;SDS011;2563;52.242;7.956;2023-05-07T14:57:40;8.77;;;5.93;;
5121;SDS011;2563;52.242;7.956;2023-05-07T15:00:06;10.47;;;5.77;;
5121;SDS011;2563;52.242;7.956;2023-05-07T15:02:32;7.73;;;5.07;;
5121;SDS011;2563;52.242;7.956;2023-05-07T15:04:58;8.33;;;5.50;;
5121;SDS011;2563;52.242;7.956;2023-05-07T15:07:24;10.30;;;5.97;;
5121;SDS011;2563;52.242;7.956;2023-05-07T15:09:49;8.00;;;5.80;;
5121;SDS011;2563;52.242;7.956;2023-05-07T15:12:16;8.90;;;5.93;;
5121;SDS011;2563;52.242;7.956;2023-05-07T15:14:41;13.73;;;6.17;;